createdAt,value
2019-03-23T00:00:13.192Z,36.70
2019-03-23T00:02:44.208Z,41.83
2019-03-23T00:05:14.194Z,47.67
2019-03-23T00:07:43.513Z,46.63
2019-03-23T00:10:13.822Z,47.97
2019-03-23T00:12:43.147Z,45.87
2019-03-23T00:15:12.807Z,47.37
2019-03-23T00:17:42.127Z,45.50
2019-03-23T00:20:11.524Z,47.63
2019-03-23T00:22:40.880Z,48.57
2019-03-23T00:25:10.260Z,49.07
2019-03-23T00:27:39.583Z,50.77
2019-03-23T00:30:12.174Z,50.50
2019-03-23T00:32:41.491Z,51.40
2019-03-23T00:35:11.074Z,53.20
2019-03-23T00:37:40.409Z,55.10
2019-03-23T00:40:10.436Z,46.80
2019-03-23T00:42:39.774Z,45.80
2019-03-23T00:45:09.966Z,43.83
2019-03-23T00:47:39.295Z,42.43
2019-03-23T00:50:09.563Z,42.50
2019-03-23T00:52:39.855Z,40.17
2019-03-23T00:55:09.447Z,40.90
2019-03-23T00:57:38.856Z,41.53
2019-03-23T01:00:10.698Z,40.27
2019-03-23T01:02:41.872Z,39.57
2019-03-23T01:05:11.776Z,42.73
2019-03-23T01:07:41.164Z,43.87
2019-03-23T01:10:12.601Z,43.63
2019-03-23T01:12:41.996Z,44.47
2019-03-23T01:15:12.778Z,47.40
2019-03-23T01:17:42.476Z,45.10
2019-03-23T01:20:14.157Z,48.83
2019-03-23T01:22:43.475Z,48.23
2019-03-23T01:25:12.831Z,49.80
2019-03-23T01:27:42.149Z,52.77
2019-03-23T01:30:13.584Z,53.30
2019-03-23T01:32:42.902Z,53.07
2019-03-23T01:35:12.579Z,52.60
2019-03-23T01:37:41.911Z,50.20
2019-03-23T01:40:11.716Z,52.47
2019-03-23T01:42:41.064Z,48.43
2019-03-23T01:45:13.128Z,48.13
2019-03-23T01:47:42.487Z,48.40
2019-03-23T01:50:12.617Z,48.27
2019-03-23T01:52:42.501Z,50.00
2019-03-23T01:55:11.979Z,49.40
2019-03-23T01:57:41.391Z,51.97
2019-03-23T02:00:12.362Z,54.23
2019-03-23T02:02:41.710Z,52.87
2019-03-23T02:05:11.385Z,55.70
2019-03-23T02:07:40.708Z,50.87
2019-03-23T02:10:11.826Z,49.10
2019-03-23T02:12:41.187Z,53.63
2019-03-23T02:15:12.432Z,52.87
2019-03-23T02:17:41.759Z,54.37
2019-03-23T02:20:14.760Z,53.40
2019-03-23T02:22:44.109Z,55.53
2019-03-23T02:25:13.596Z,56.70
2019-03-23T02:27:42.956Z,56.20
2019-03-23T02:30:13.135Z,56.20
2019-03-23T02:32:42.490Z,55.97
2019-03-23T02:35:11.920Z,58.07
2019-03-23T02:37:41.291Z,55.63
2019-03-23T02:40:12.051Z,56.07
2019-03-23T02:42:41.415Z,55.40
2019-03-23T02:45:12.061Z,56.83
2019-03-23T02:47:41.423Z,56.27
2019-03-23T02:50:11.284Z,56.57
2019-03-23T02:52:40.625Z,55.90
2019-03-23T02:55:10.791Z,54.87
2019-03-23T02:57:40.176Z,57.20
2019-03-23T03:00:16.769Z,57.40
2019-03-23T03:02:46.109Z,57.13
2019-03-23T03:05:15.504Z,59.23
2019-03-23T03:07:44.832Z,59.63
2019-03-23T03:10:36.844Z,56.57
2019-03-23T03:13:06.268Z,57.20
2019-03-23T03:15:35.587Z,57.03
2019-03-23T03:18:06.578Z,56.90
2019-03-23T03:20:35.977Z,59.93
2019-03-23T03:23:05.425Z,58.47
2019-03-23T03:25:35.519Z,59.93
2019-03-23T03:28:05.399Z,59.17
2019-03-23T03:30:34.733Z,58.23
2019-03-23T03:33:04.148Z,57.03
2019-03-23T03:35:33.528Z,59.17
2019-03-23T03:38:02.874Z,58.20
2019-03-23T03:40:32.192Z,56.97
2019-03-23T03:43:01.553Z,57.60
2019-03-23T03:45:30.945Z,59.83
2019-03-23T03:48:00.291Z,56.87
2019-03-23T03:50:29.655Z,58.93
2019-03-23T03:52:59.018Z,55.80
2019-03-23T03:55:28.414Z,54.90
2019-03-23T03:57:57.751Z,54.20
2019-03-23T04:00:27.140Z,56.37
2019-03-23T04:02:56.597Z,54.23
2019-03-23T04:05:25.920Z,56.83
2019-03-23T04:07:55.260Z,54.60
2019-03-23T04:10:24.742Z,55.60
2019-03-23T04:12:54.075Z,55.60
2019-03-23T04:15:23.409Z,54.80
2019-03-23T04:17:52.741Z,53.93
2019-03-23T04:20:22.111Z,53.27
2019-03-23T04:22:51.515Z,54.93
2019-03-23T04:25:20.859Z,54.60
2019-03-23T04:27:50.201Z,55.57
2019-03-23T04:30:19.536Z,55.50
2019-03-23T04:32:48.874Z,57.27
2019-03-23T04:35:18.247Z,57.97
2019-03-23T04:37:47.577Z,57.03
2019-03-23T04:40:17.881Z,55.47
2019-03-23T04:42:47.213Z,56.43
2019-03-23T04:45:16.788Z,58.60
2019-03-23T04:47:46.112Z,53.67
2019-03-23T04:50:15.455Z,52.67
2019-03-23T04:52:44.778Z,57.73
2019-03-23T04:55:14.995Z,56.07
2019-03-23T04:57:44.315Z,55.50
2019-03-23T05:00:16.291Z,52.97
2019-03-23T05:02:45.634Z,53.87
2019-03-23T05:05:16.007Z,53.50
2019-03-23T05:07:45.348Z,52.13
2019-03-23T05:10:14.849Z,54.27
2019-03-23T05:12:44.176Z,54.73
2019-03-23T05:15:13.754Z,54.77
2019-03-23T05:17:43.643Z,57.93
2019-03-23T05:20:16.124Z,55.27
2019-03-23T05:22:45.455Z,56.87
2019-03-23T05:25:23.737Z,56.70
2019-03-23T05:27:53.058Z,56.13
2019-03-23T05:30:22.391Z,53.40
2019-03-23T05:32:52.148Z,54.27
2019-03-23T05:35:21.561Z,53.50
2019-03-23T05:37:50.889Z,52.67
2019-03-23T05:40:20.223Z,52.10
2019-03-23T05:42:49.550Z,51.57
2019-03-23T05:45:18.892Z,49.77
2019-03-23T05:47:48.227Z,50.40
2019-03-23T05:50:17.564Z,49.03
2019-03-23T05:52:46.897Z,48.07
2019-03-23T05:55:16.227Z,48.03
2019-03-23T05:57:45.555Z,48.20
2019-03-23T06:00:16.832Z,49.07
2019-03-23T06:02:46.180Z,47.47
2019-03-23T06:05:15.575Z,47.37
2019-03-23T06:07:44.895Z,49.33
2019-03-23T06:10:14.403Z,45.97
2019-03-23T06:12:43.752Z,47.43
2019-03-23T06:15:13.164Z,47.63
2019-03-23T06:17:42.493Z,49.13
2019-03-23T06:20:11.895Z,47.30
2019-03-23T06:22:41.229Z,47.30
2019-03-23T06:25:10.834Z,46.63
2019-03-23T06:27:40.159Z,48.97
2019-03-23T06:30:11.904Z,46.47
2019-03-23T06:32:41.259Z,47.07
2019-03-23T06:35:11.873Z,49.60
2019-03-23T06:37:41.371Z,44.43
2019-03-23T06:40:11.551Z,45.13
2019-03-23T06:42:40.916Z,45.17
2019-03-23T06:45:11.163Z,46.17
2019-03-23T06:47:40.524Z,45.87
2019-03-23T06:50:11.677Z,46.20
2019-03-23T06:52:41.003Z,42.73
2019-03-23T06:55:10.507Z,45.50
2019-03-23T06:57:39.906Z,44.23
2019-03-23T07:00:12.251Z,44.83
2019-03-23T07:02:41.587Z,44.57
2019-03-23T07:05:12.946Z,42.97
2019-03-23T07:07:42.280Z,42.07
2019-03-23T07:10:13.046Z,43.73
2019-03-23T07:12:42.370Z,43.30
2019-03-23T07:15:19.907Z,43.93
2019-03-23T07:17:43.375Z,42.93
2019-03-23T07:20:14.057Z,40.57
2019-03-23T07:22:43.438Z,44.30
2019-03-23T07:25:12.949Z,41.90
2019-03-23T07:27:42.296Z,43.40
2019-03-23T07:30:14.259Z,42.13
2019-03-23T07:32:43.668Z,42.93
2019-03-23T07:35:13.647Z,41.53
2019-03-23T07:37:43.057Z,39.73
2019-03-23T07:40:12.921Z,41.57
2019-03-23T07:42:42.264Z,40.93
2019-03-23T07:45:13.892Z,42.63
2019-03-23T07:47:43.256Z,42.60
2019-03-23T07:50:13.724Z,43.07
2019-03-23T07:52:43.163Z,41.00
2019-03-23T07:55:14.036Z,41.37
2019-03-23T07:57:44.007Z,42.43
2019-03-23T08:00:19.209Z,40.60
2019-03-23T08:02:48.538Z,42.50
2019-03-23T08:05:17.942Z,41.73
2019-03-23T08:07:47.276Z,41.97
2019-03-23T08:10:30.036Z,39.80
2019-03-23T08:12:59.379Z,40.63
2019-03-23T08:15:28.856Z,42.40
2019-03-23T08:17:58.215Z,41.97
2019-03-23T08:20:27.543Z,39.83
2019-03-23T08:22:57.859Z,43.63
2019-03-23T08:25:27.213Z,42.90
2019-03-23T08:27:56.604Z,42.20
2019-03-23T08:30:25.943Z,39.23
2019-03-23T08:32:55.288Z,41.07
2019-03-23T08:35:27.351Z,41.03
2019-03-23T08:37:57.835Z,40.83
2019-03-23T08:40:27.180Z,39.93
2019-03-23T08:42:56.534Z,39.97
2019-03-23T08:45:25.870Z,43.10
2019-03-23T08:47:55.276Z,40.63
2019-03-23T08:50:24.633Z,41.07
2019-03-23T08:52:53.955Z,41.53
2019-03-23T08:55:23.298Z,42.17
2019-03-23T08:57:52.686Z,41.83
2019-03-23T09:00:22.022Z,41.30
2019-03-23T09:02:51.352Z,44.73
2019-03-23T09:05:20.687Z,42.40
2019-03-23T09:07:52.432Z,43.73
2019-03-23T09:10:21.039Z,42.07
2019-03-23T09:12:50.371Z,41.47
2019-03-23T09:15:19.702Z,41.53
2019-03-23T09:17:49.049Z,43.10
2019-03-23T09:20:18.442Z,41.23
2019-03-23T09:22:47.767Z,45.27
2019-03-23T09:25:17.245Z,40.40
2019-03-23T09:27:46.604Z,40.63
2019-03-23T09:30:16.143Z,41.63
2019-03-23T09:32:45.512Z,42.30
2019-03-23T09:35:14.850Z,39.93
2019-03-23T09:37:44.173Z,40.37
2019-03-23T09:40:13.575Z,43.60
2019-03-23T09:42:42.904Z,39.67
2019-03-23T09:45:14.166Z,40.47
2019-03-23T09:47:43.285Z,41.57
2019-03-23T09:50:12.968Z,40.20
2019-03-23T09:52:42.351Z,43.50
2019-03-23T09:55:11.692Z,40.17
2019-03-23T09:57:41.021Z,47.47
2019-03-23T10:00:12.345Z,40.93
2019-03-23T10:02:41.931Z,43.27
2019-03-23T10:05:11.336Z,45.43
2019-03-23T10:07:40.691Z,42.80
2019-03-23T10:10:21.002Z,43.77
2019-03-23T10:12:41.115Z,41.37
2019-03-23T10:15:10.680Z,43.13
2019-03-23T10:17:40.025Z,40.67
2019-03-23T10:20:09.521Z,41.67
2019-03-23T10:22:38.853Z,40.70
2019-03-23T10:25:08.182Z,40.00
2019-03-23T10:27:37.533Z,40.63
2019-03-23T10:30:08.546Z,42.10
2019-03-23T10:32:37.878Z,42.90
2019-03-23T10:35:08.653Z,39.03
2019-03-23T10:37:37.980Z,41.83
2019-03-23T10:40:08.844Z,42.17
2019-03-23T10:42:39.167Z,42.40
2019-03-23T10:45:09.783Z,41.33
2019-03-23T10:47:39.238Z,41.13
2019-03-23T10:50:09.287Z,40.30
2019-03-23T10:52:38.624Z,42.53
2019-03-23T10:55:08.486Z,41.20
2019-03-23T10:57:37.815Z,40.50
2019-03-23T11:00:10.124Z,42.83
2019-03-23T11:02:39.659Z,40.60
2019-03-23T11:05:09.587Z,41.63
2019-03-23T11:07:39.095Z,41.07
2019-03-23T11:10:12.575Z,43.23
2019-03-23T11:12:41.906Z,41.83
2019-03-23T11:15:12.345Z,40.83
2019-03-23T11:17:41.683Z,42.83
2019-03-23T11:20:12.747Z,44.33
2019-03-23T11:22:42.081Z,42.80
2019-03-23T11:25:13.022Z,44.53
2019-03-23T11:27:42.363Z,43.63
2019-03-23T11:30:13.231Z,44.47
2019-03-23T11:32:42.574Z,43.10
2019-03-23T11:35:11.978Z,42.43
2019-03-23T11:37:41.503Z,45.13
2019-03-23T11:40:12.264Z,42.83
2019-03-23T11:42:49.916Z,41.93
2019-03-23T11:45:14.535Z,41.27
2019-03-23T11:47:43.865Z,40.37
2019-03-23T11:50:13.368Z,41.40
2019-03-23T11:52:42.793Z,39.30
2019-03-23T11:55:12.344Z,40.23
2019-03-23T11:57:41.692Z,41.13
2019-03-23T12:00:15.592Z,40.37
2019-03-23T12:02:44.920Z,42.50
2019-03-23T12:05:14.711Z,40.57
2019-03-23T12:07:45.087Z,41.13
2019-03-23T12:10:14.591Z,39.97
2019-03-23T12:12:43.920Z,41.27
2019-03-23T12:15:13.896Z,40.17
2019-03-23T12:17:43.222Z,40.53
2019-03-23T12:20:13.699Z,39.50
2019-03-23T12:22:43.033Z,38.40
2019-03-23T12:25:12.531Z,38.30
2019-03-23T12:27:41.889Z,35.23
2019-03-23T12:30:16.439Z,34.43
2019-03-23T12:32:45.870Z,35.73
2019-03-23T12:35:15.203Z,33.70
2019-03-23T12:37:44.532Z,32.10
2019-03-23T12:40:14.504Z,31.50
2019-03-23T12:42:43.901Z,27.97
2019-03-23T12:45:13.772Z,28.73
2019-03-23T12:47:43.094Z,29.50
2019-03-23T12:50:12.596Z,25.33
2019-03-23T12:52:41.918Z,19.77
2019-03-23T12:55:11.500Z,15.07
2019-03-23T12:57:40.819Z,7.77
2019-03-23T13:00:15.099Z,6.43
2019-03-23T13:02:44.436Z,5.17
2019-03-23T13:05:14.914Z,5.17
2019-03-23T13:07:44.304Z,4.20
2019-03-23T13:10:14.468Z,3.77
2019-03-23T13:12:43.788Z,3.43
2019-03-23T13:15:15.331Z,3.93
2019-03-23T13:17:45.707Z,2.80
2019-03-23T13:20:15.969Z,2.70
2019-03-23T13:22:45.363Z,2.77
2019-03-23T13:25:14.699Z,2.60
2019-03-23T13:27:44.019Z,3.07
2019-03-23T13:30:16.422Z,2.70
2019-03-23T13:32:45.738Z,3.40
2019-03-23T13:35:15.075Z,2.87
2019-03-23T13:37:44.479Z,2.80
2019-03-23T13:40:13.988Z,3.67
2019-03-23T13:42:43.338Z,2.77
2019-03-23T13:45:13.168Z,2.37
2019-03-23T13:47:42.504Z,3.43
2019-03-23T13:50:12.373Z,2.87
2019-03-23T13:52:41.713Z,2.27
2019-03-23T13:55:17.068Z,3.50
2019-03-23T13:57:46.399Z,2.73
2019-03-23T14:00:15.719Z,3.53
2019-03-23T14:02:45.052Z,3.43
2019-03-23T14:05:16.291Z,3.27
2019-03-23T14:07:45.391Z,2.30
2019-03-23T14:10:14.708Z,2.30
2019-03-23T14:12:45.846Z,2.17
2019-03-23T14:15:15.138Z,2.63
2019-03-23T14:17:44.495Z,3.00
2019-03-23T14:20:13.897Z,2.10
2019-03-23T14:22:43.229Z,1.87
2019-03-23T14:25:12.567Z,2.30
2019-03-23T14:27:41.921Z,2.53
2019-03-23T14:30:11.231Z,1.87
2019-03-23T14:32:40.585Z,1.57
2019-03-23T14:35:09.903Z,1.67
2019-03-23T14:37:39.227Z,2.30
2019-03-23T14:40:08.799Z,2.60
2019-03-23T14:42:38.123Z,2.97
2019-03-23T14:45:07.611Z,3.23
2019-03-23T14:47:36.947Z,2.50
2019-03-23T14:50:06.804Z,3.00
2019-03-23T14:52:36.144Z,3.93
2019-03-23T14:55:06.831Z,2.53
2019-03-23T14:57:36.165Z,3.30
2019-03-23T15:00:09.532Z,3.23
2019-03-23T15:02:38.875Z,5.47
2019-03-23T15:05:08.339Z,4.07
2019-03-23T15:07:37.675Z,3.33
2019-03-23T15:10:08.737Z,3.77
2019-03-23T15:12:38.060Z,3.60
2019-03-23T15:15:08.325Z,3.73
2019-03-23T15:17:37.713Z,3.07
2019-03-23T15:20:07.371Z,3.10
2019-03-23T15:22:36.728Z,3.57
2019-03-23T15:25:06.928Z,2.67
2019-03-23T15:27:36.246Z,2.63
2019-03-23T15:30:06.555Z,4.47
2019-03-23T15:32:35.875Z,3.67
2019-03-23T15:35:07.342Z,3.07
2019-03-23T15:37:36.668Z,5.07
2019-03-23T15:40:07.340Z,4.37
2019-03-23T15:42:36.664Z,3.47
2019-03-23T15:45:08.405Z,3.43
2019-03-23T15:47:37.726Z,4.30
2019-03-23T15:50:07.895Z,4.10
2019-03-23T15:52:37.217Z,3.70
2019-03-23T15:55:06.627Z,4.73
2019-03-23T15:57:36.432Z,4.30
2019-03-23T16:00:09.618Z,4.17
2019-03-23T16:02:38.948Z,3.67
2019-03-23T16:05:09.221Z,4.77
2019-03-23T16:07:38.536Z,5.47
2019-03-23T16:10:08.625Z,3.80
2019-03-23T16:12:38.006Z,6.97
2019-03-23T16:15:10.439Z,4.00
2019-03-23T16:17:39.832Z,5.80
2019-03-23T16:20:11.135Z,3.47
2019-03-23T16:22:40.476Z,4.00
2019-03-23T16:25:10.460Z,4.60
2019-03-23T16:27:39.782Z,4.87
2019-03-23T16:30:11.352Z,3.80
2019-03-23T16:32:40.680Z,4.50
2019-03-23T16:35:12.563Z,3.90
2019-03-23T16:37:41.943Z,5.70
2019-03-23T16:40:12.116Z,4.40
2019-03-23T16:42:45.429Z,3.97
2019-03-23T16:45:13.499Z,3.70
2019-03-23T16:47:42.828Z,4.30
2019-03-23T16:50:12.604Z,4.83
2019-03-23T16:52:42.885Z,5.27
2019-03-23T16:55:12.415Z,4.17
2019-03-23T16:57:41.783Z,4.73
2019-03-23T17:00:19.937Z,4.47
2019-03-23T17:02:49.271Z,3.93
2019-03-23T17:05:18.640Z,5.37
2019-03-23T17:07:48.019Z,4.43
2019-03-23T17:10:17.382Z,4.07
2019-03-23T17:12:55.075Z,3.73
2019-03-23T17:15:17.832Z,4.70
2019-03-23T17:17:47.161Z,4.60
2019-03-23T17:20:16.468Z,4.37
2019-03-23T17:22:45.815Z,5.80
2019-03-23T17:25:15.142Z,3.60
2019-03-23T17:27:44.469Z,6.20
2019-03-23T17:30:14.014Z,5.20
2019-03-23T17:32:43.451Z,4.43
2019-03-23T17:35:12.788Z,4.13
2019-03-23T17:37:42.115Z,6.20
2019-03-23T17:40:11.448Z,8.83
2019-03-23T17:42:41.843Z,7.13
2019-03-23T17:45:11.492Z,6.17
2019-03-23T17:47:40.827Z,8.87
2019-03-23T17:50:10.476Z,7.03
2019-03-23T17:52:39.809Z,7.00
2019-03-23T17:55:09.381Z,5.77
2019-03-23T17:57:38.784Z,6.50
2019-03-23T18:00:12.393Z,9.40
2019-03-23T18:02:41.724Z,8.23
2019-03-23T18:05:12.159Z,10.57
2019-03-23T18:07:41.732Z,9.33
2019-03-23T18:10:11.442Z,6.63
2019-03-23T18:12:40.845Z,6.17
2019-03-23T18:15:11.399Z,6.97
2019-03-23T18:17:40.732Z,5.87
2019-03-23T18:20:11.659Z,8.07
2019-03-23T18:22:40.980Z,9.80
2019-03-23T18:25:10.641Z,11.17
2019-03-23T18:27:39.967Z,10.37
2019-03-23T18:30:32.933Z,8.37
2019-03-23T18:33:02.432Z,7.37
2019-03-23T18:35:31.816Z,7.37
2019-03-23T18:38:02.087Z,4.67
2019-03-23T18:40:32.749Z,6.47
2019-03-23T18:43:02.076Z,8.13
2019-03-23T18:45:31.651Z,9.93
2019-03-23T18:48:01.034Z,10.60
2019-03-23T18:50:30.356Z,6.43
2019-03-23T18:52:59.710Z,6.07
2019-03-23T18:55:29.111Z,5.27
2019-03-23T18:57:58.433Z,6.23
2019-03-23T19:00:38.691Z,5.53
2019-03-23T19:03:08.220Z,5.23
2019-03-23T19:05:37.598Z,5.30
2019-03-23T19:08:07.365Z,4.83
2019-03-23T19:10:36.940Z,5.17
2019-03-23T19:13:06.591Z,5.57
2019-03-23T19:15:35.992Z,4.53
2019-03-23T19:18:05.961Z,5.53
2019-03-23T19:20:35.424Z,4.70
2019-03-23T19:23:05.293Z,5.63
2019-03-23T19:25:35.589Z,6.37
2019-03-23T19:28:05.644Z,5.93
2019-03-23T19:30:34.976Z,5.57
2019-03-23T19:33:06.218Z,6.20
2019-03-23T19:35:35.549Z,7.27
2019-03-23T19:38:05.022Z,4.73
2019-03-23T19:40:34.357Z,6.73
2019-03-23T19:43:03.742Z,5.03
2019-03-23T19:45:33.989Z,6.23
2019-03-23T19:48:03.467Z,4.63
2019-03-23T19:50:32.793Z,4.33
2019-03-23T19:53:02.107Z,4.90
2019-03-23T19:55:31.429Z,4.87
2019-03-23T19:58:00.748Z,6.13
2019-03-23T20:00:30.075Z,6.20
2019-03-23T20:02:59.395Z,6.70
2019-03-23T20:05:28.723Z,5.80
2019-03-23T20:07:58.040Z,5.87
2019-03-23T20:10:28.442Z,4.93
2019-03-23T20:12:57.759Z,5.20
2019-03-23T20:15:27.081Z,5.70
2019-03-23T20:17:56.397Z,4.50
2019-03-23T20:20:25.719Z,5.87
2019-03-23T20:22:55.040Z,5.70
2019-03-23T20:25:24.375Z,6.77
2019-03-23T20:27:53.689Z,6.67
2019-03-23T20:30:23.083Z,4.93
2019-03-23T20:32:52.399Z,5.73
2019-03-23T20:35:21.723Z,5.57
2019-03-23T20:37:51.048Z,5.17
2019-03-23T20:40:22.169Z,5.10
2019-03-23T20:42:51.503Z,5.37
2019-03-23T20:45:28.907Z,4.10
2019-03-23T20:47:58.561Z,4.30
2019-03-23T20:50:27.896Z,4.43
2019-03-23T20:52:57.203Z,4.47
2019-03-23T20:55:28.275Z,4.27
2019-03-23T20:57:57.772Z,5.73
2019-03-23T21:00:27.157Z,6.10
2019-03-23T21:02:56.489Z,4.60
2019-03-23T21:05:33.872Z,4.80
2019-03-23T21:07:56.843Z,5.77
2019-03-23T21:10:26.163Z,6.73
2019-03-23T21:12:56.493Z,6.20
2019-03-23T21:15:25.870Z,8.23
2019-03-23T21:17:55.187Z,5.73
2019-03-23T21:20:24.515Z,7.47
2019-03-23T21:22:53.865Z,6.30
2019-03-23T21:25:23.242Z,6.27
2019-03-23T21:27:52.580Z,7.20
2019-03-23T21:30:22.440Z,8.03
2019-03-23T21:32:51.768Z,9.23
2019-03-23T21:35:22.058Z,8.03
2019-03-23T21:37:51.390Z,5.57
2019-03-23T21:40:20.792Z,5.40
2019-03-23T21:42:50.149Z,5.43
2019-03-23T21:45:19.541Z,6.97
2019-03-23T21:47:48.876Z,4.83
2019-03-23T21:50:18.196Z,6.67
2019-03-23T21:52:47.626Z,5.20
2019-03-23T21:55:17.833Z,5.40
2019-03-23T21:57:47.224Z,5.20
2019-03-23T22:00:30.691Z,6.10
2019-03-23T22:03:00.463Z,6.07
2019-03-23T22:05:29.786Z,5.80
2019-03-23T22:07:59.106Z,5.53
2019-03-23T22:10:28.452Z,4.90
2019-03-23T22:12:57.779Z,5.03
2019-03-23T22:15:28.913Z,7.20
2019-03-23T22:17:58.276Z,5.50
2019-03-23T22:20:27.614Z,5.40
2019-03-23T22:22:57.033Z,4.57
2019-03-23T22:25:26.365Z,5.30
2019-03-23T22:27:55.667Z,5.27
2019-03-23T22:30:25.035Z,5.43
2019-03-23T22:32:54.352Z,5.03
2019-03-23T22:35:23.720Z,5.37
2019-03-23T22:37:53.027Z,4.97
2019-03-23T22:40:22.363Z,4.60
2019-03-23T22:42:51.681Z,5.20
2019-03-23T22:45:20.998Z,5.80
2019-03-23T22:47:51.295Z,5.80
2019-03-23T22:50:20.617Z,4.67
2019-03-23T22:52:49.937Z,4.80
2019-03-23T22:55:19.260Z,5.83
2019-03-23T22:57:48.593Z,5.10
2019-03-23T23:00:21.897Z,5.47
2019-03-23T23:02:52.913Z,4.73
2019-03-23T23:05:22.314Z,4.23
2019-03-23T23:07:51.641Z,4.53
2019-03-23T23:10:20.968Z,4.30
2019-03-23T23:12:50.286Z,3.93
2019-03-23T23:15:19.606Z,4.10
2019-03-23T23:17:48.934Z,4.67
2019-03-23T23:20:18.266Z,4.07
2019-03-23T23:22:48.567Z,4.73
2019-03-23T23:25:17.896Z,4.30
2019-03-23T23:27:47.223Z,4.10
2019-03-23T23:30:17.197Z,5.80
2019-03-23T23:32:46.524Z,4.20
2019-03-23T23:35:16.112Z,5.60
2019-03-23T23:37:45.432Z,4.37
2019-03-23T23:40:14.759Z,5.50
2019-03-23T23:42:44.127Z,3.70
2019-03-23T23:45:15.790Z,4.80
2019-03-23T23:47:44.725Z,6.93
2019-03-23T23:50:14.283Z,4.70
2019-03-23T23:52:43.626Z,4.70
2019-03-23T23:55:13.875Z,4.27
2019-03-23T23:57:43.211Z,5.03
